createdAt,value
2022-08-19T00:01:56.431Z,23.40
2022-08-19T00:04:26.630Z,23.36
2022-08-19T00:06:53.733Z,23.39
2022-08-19T00:09:22.332Z,23.16
2022-08-19T00:11:49.138Z,23.34
2022-08-19T00:14:17.574Z,23.33
2022-08-19T00:16:47.071Z,23.39
2022-08-19T00:19:14.249Z,23.30
2022-08-19T00:21:41.108Z,23.20
2022-08-19T00:24:09.868Z,23.08
2022-08-19T00:26:38.510Z,23.07
2022-08-19T00:29:07.327Z,23.04
2022-08-19T00:31:34.961Z,23.03
2022-08-19T00:34:01.667Z,22.94
2022-08-19T00:36:29.617Z,22.86
2022-08-19T00:38:56.538Z,22.82
2022-08-19T00:41:25.731Z,22.72
2022-08-19T00:44:09.787Z,22.72
2022-08-19T00:46:39.151Z,22.63
2022-08-19T00:49:37.392Z,22.65
2022-08-19T00:52:10.203Z,22.48
2022-08-19T00:54:38.369Z,22.63
2022-08-19T00:57:09.964Z,22.68
2022-08-19T01:00:00.547Z,22.72
2022-08-19T01:02:28.333Z,22.65
2022-08-19T01:04:56.405Z,22.65
2022-08-19T01:07:23.338Z,22.50
2022-08-19T01:09:51.421Z,22.43
2022-08-19T01:12:19.273Z,22.39
2022-08-19T01:14:47.755Z,22.34
2022-08-19T01:17:16.620Z,22.15
2022-08-19T01:19:44.936Z,22.21
2022-08-19T01:22:32.894Z,22.18
2022-08-19T01:25:00.896Z,22.11
2022-08-19T01:27:35.306Z,22.11
2022-08-19T01:30:21.091Z,22.06
2022-08-19T01:32:48.006Z,21.99
2022-08-19T01:35:14.955Z,22.13
2022-08-19T01:38:03.104Z,22.32
2022-08-19T01:40:34.202Z,22.55
2022-08-19T01:43:01.598Z,22.74
2022-08-19T01:45:30.104Z,22.91
2022-08-19T01:48:01.908Z,23.03
2022-08-19T01:50:30.423Z,23.13
2022-08-19T01:53:05.929Z,23.19
2022-08-19T01:55:41.364Z,23.34
2022-08-19T01:58:13.587Z,23.45
2022-08-19T02:00:40.708Z,23.54
2022-08-19T02:03:07.795Z,23.70
2022-08-19T02:05:34.616Z,23.84
2022-08-19T02:08:01.428Z,23.92
2022-08-19T02:10:28.180Z,24.03
2022-08-19T02:12:55.270Z,24.13
2022-08-19T02:15:23.322Z,24.21
2022-08-19T02:17:50.139Z,24.24
2022-08-19T02:20:17.726Z,24.27
2022-08-19T02:22:44.541Z,24.39
2022-08-19T02:25:13.686Z,24.38
2022-08-19T02:27:41.772Z,24.38
2022-08-19T02:30:14.444Z,24.35
2022-08-19T02:32:44.809Z,24.29
2022-08-19T02:35:14.272Z,24.20
2022-08-19T02:38:01.637Z,24.18
2022-08-19T02:40:30.152Z,24.13
2022-08-19T02:42:57.310Z,24.14
2022-08-19T02:45:24.361Z,24.05
2022-08-19T02:47:51.167Z,24.12
2022-08-19T02:50:18.691Z,24.12
2022-08-19T02:52:46.403Z,24.16
2022-08-19T02:55:13.249Z,24.01
2022-08-19T02:57:40.023Z,23.88
2022-08-19T03:00:09.233Z,23.68
2022-08-19T03:02:36.019Z,23.71
2022-08-19T03:05:05.021Z,23.76
2022-08-19T03:07:31.976Z,23.74
2022-08-19T03:09:59.025Z,23.66
2022-08-19T03:12:26.104Z,23.29
2022-08-19T03:14:53.906Z,23.21
2022-08-19T03:17:21.110Z,23.23
2022-08-19T03:19:47.806Z,23.19
2022-08-19T03:22:15.261Z,23.23
2022-08-19T03:24:42.016Z,23.14
2022-08-19T03:27:08.773Z,23.19
2022-08-19T03:29:43.956Z,23.09
2022-08-19T03:32:19.827Z,23.06
2022-08-19T03:34:58.437Z,23.16
2022-08-19T03:37:25.102Z,23.19
2022-08-19T03:39:52.777Z,23.25
2022-08-19T03:42:32.841Z,23.10
2022-08-19T03:45:06.391Z,23.09
2022-08-19T03:47:33.376Z,23.16
2022-08-19T03:50:00.240Z,23.16
2022-08-19T03:52:26.956Z,23.15
2022-08-19T03:54:53.757Z,23.25
2022-08-19T03:57:20.530Z,23.29
2022-08-19T03:59:47.228Z,23.43
2022-08-19T04:02:14.398Z,23.53
2022-08-19T04:04:44.291Z,23.54
2022-08-19T04:07:14.590Z,23.57
2022-08-19T04:09:41.289Z,23.64
2022-08-19T04:12:08.657Z,23.66
2022-08-19T04:14:36.274Z,23.74
2022-08-19T04:17:05.884Z,23.80
2022-08-19T04:19:37.060Z,23.80
2022-08-19T04:22:05.033Z,23.85
2022-08-19T04:24:32.213Z,23.93
2022-08-19T04:27:01.167Z,23.99
2022-08-19T04:29:28.082Z,24.07
2022-08-19T04:31:57.277Z,24.08
2022-08-19T04:34:26.848Z,24.08
2022-08-19T04:36:55.818Z,24.10
2022-08-19T04:39:49.741Z,24.16
2022-08-19T04:42:38.185Z,24.26
2022-08-19T04:45:09.372Z,24.32
2022-08-19T04:47:48.091Z,24.38
2022-08-19T04:50:27.466Z,24.48
2022-08-19T04:52:56.538Z,24.49
2022-08-19T04:55:26.365Z,24.63
2022-08-19T04:57:53.266Z,24.67
2022-08-19T05:00:20.002Z,24.70
2022-08-19T05:02:46.845Z,24.76
2022-08-19T05:05:14.103Z,24.80
2022-08-19T05:07:42.090Z,24.84
2022-08-19T05:10:09.063Z,24.86
2022-08-19T05:12:35.824Z,24.92
2022-08-19T05:15:04.773Z,24.98
2022-08-19T05:17:37.484Z,25.02
2022-08-19T05:20:25.822Z,25.11
2022-08-19T05:22:53.400Z,25.20
2022-08-19T05:25:21.859Z,25.26
2022-08-19T05:27:49.470Z,25.36
2022-08-19T05:30:17.742Z,25.42
2022-08-19T05:32:44.699Z,25.48
2022-08-19T05:35:12.727Z,25.55
2022-08-19T05:37:41.561Z,25.61
2022-08-19T05:40:09.989Z,25.63
2022-08-19T05:42:36.860Z,25.64
2022-08-19T05:45:05.375Z,25.67
2022-08-19T05:47:32.973Z,25.67
2022-08-19T05:49:59.765Z,25.70
2022-08-19T05:52:27.738Z,25.76
2022-08-19T05:54:56.844Z,25.80
2022-08-19T05:57:24.891Z,25.86
2022-08-19T05:59:53.037Z,25.90
2022-08-19T06:02:24.807Z,25.91
2022-08-19T06:04:51.586Z,25.93
2022-08-19T06:07:18.419Z,26.02
2022-08-19T06:09:54.433Z,26.09
2022-08-19T06:12:32.585Z,26.16
2022-08-19T06:15:00.990Z,26.18
2022-08-19T06:17:31.447Z,26.10
2022-08-19T06:19:59.696Z,25.91
2022-08-19T06:22:26.979Z,25.69
2022-08-19T06:24:54.997Z,25.59
2022-08-19T06:27:22.926Z,25.40
2022-08-19T06:29:50.162Z,25.51
2022-08-19T06:32:19.749Z,25.66
2022-08-19T06:34:47.426Z,25.73
2022-08-19T06:37:14.705Z,25.85
2022-08-19T06:39:44.066Z,25.90
2022-08-19T06:42:14.172Z,25.96
2022-08-19T06:44:43.790Z,25.99
2022-08-19T06:47:23.511Z,26.08
2022-08-19T06:50:02.945Z,26.12
2022-08-19T06:52:34.056Z,26.31
2022-08-19T06:55:06.416Z,26.38
2022-08-19T06:57:34.394Z,26.54
2022-08-19T07:00:01.553Z,26.63
2022-08-19T07:02:28.528Z,26.73
2022-08-19T07:04:56.761Z,26.76
2022-08-19T07:07:24.282Z,26.81
2022-08-19T07:09:58.468Z,26.88
2022-08-19T07:12:38.061Z,26.87
2022-08-19T07:15:10.844Z,26.99
2022-08-19T07:17:40.197Z,27.03
2022-08-19T07:20:09.606Z,27.05
2022-08-19T07:22:40.880Z,27.10
2022-08-19T07:25:09.502Z,27.14
2022-08-19T07:27:36.658Z,27.16
2022-08-19T07:30:05.647Z,27.23
2022-08-19T07:32:32.715Z,27.34
2022-08-19T07:35:01.553Z,27.42
2022-08-19T07:37:33.024Z,27.28
2022-08-19T07:40:01.486Z,27.19
2022-08-19T07:42:30.766Z,27.07
2022-08-19T07:44:59.171Z,27.05
2022-08-19T07:47:50.090Z,27.29
2022-08-19T07:50:12.931Z,27.56
2022-08-19T07:52:40.778Z,27.58
2022-08-19T07:55:40.537Z,27.47
2022-08-19T07:57:56.627Z,27.37
2022-08-19T08:00:24.543Z,27.37
2022-08-19T08:02:55.183Z,27.34
2022-08-19T08:05:43.971Z,27.34
2022-08-19T08:08:32.092Z,27.44
2022-08-19T08:10:59.989Z,27.62
2022-08-19T08:13:28.148Z,27.69
2022-08-19T08:15:56.564Z,27.75
2022-08-19T08:18:27.896Z,27.88
2022-08-19T08:20:58.437Z,28.00
2022-08-19T08:23:26.754Z,28.04
2022-08-19T08:25:57.614Z,28.09
2022-08-19T08:28:26.223Z,28.20
2022-08-19T08:30:56.665Z,28.19
2022-08-19T08:33:32.688Z,28.25
2022-08-19T08:36:06.219Z,28.35
2022-08-19T08:38:39.826Z,28.46
2022-08-19T08:41:33.499Z,28.66
2022-08-19T08:44:00.372Z,28.66
2022-08-19T08:46:35.061Z,28.57
2022-08-19T08:49:32.547Z,28.55
2022-08-19T08:52:22.551Z,28.40
2022-08-19T08:54:55.387Z,28.25
2022-08-19T08:57:33.746Z,28.26
2022-08-19T09:00:15.459Z,28.43
2022-08-19T09:02:43.520Z,28.40
2022-08-19T09:05:16.442Z,28.52
2022-08-19T09:08:02.859Z,28.59
2022-08-19T09:10:44.261Z,28.64
2022-08-19T09:13:37.362Z,28.64
2022-08-19T09:16:14.929Z,28.63
2022-08-19T09:18:48.468Z,28.60
2022-08-19T09:21:16.375Z,28.64
2022-08-19T09:23:44.371Z,28.70
2022-08-19T09:26:16.339Z,28.72
2022-08-19T09:28:48.320Z,28.78
2022-08-19T09:31:19.123Z,28.85
2022-08-19T09:33:46.253Z,28.84
2022-08-19T09:36:24.278Z,28.82
2022-08-19T09:39:02.172Z,28.93
2022-08-19T09:41:29.858Z,28.90
2022-08-19T09:43:58.153Z,28.78
2022-08-19T09:46:28.756Z,28.68
2022-08-19T09:49:05.991Z,28.66
2022-08-19T09:52:03.086Z,28.53
2022-08-19T09:54:36.194Z,28.52
2022-08-19T09:57:05.132Z,28.47
2022-08-19T09:59:35.194Z,28.38
2022-08-19T10:02:04.026Z,28.36
2022-08-19T10:04:56.281Z,28.31
2022-08-19T10:07:23.455Z,28.36
2022-08-19T10:10:06.409Z,28.37
2022-08-19T10:12:36.542Z,28.29
2022-08-19T10:15:04.287Z,28.23
2022-08-19T10:17:33.469Z,28.16
2022-08-19T10:20:00.892Z,28.17
2022-08-19T10:22:27.793Z,28.14
2022-08-19T10:24:54.931Z,28.09
2022-08-19T10:27:22.265Z,27.95
2022-08-19T10:29:49.019Z,27.80
2022-08-19T10:32:16.148Z,27.68
2022-08-19T10:34:48.510Z,27.55
2022-08-19T10:37:28.947Z,27.59
2022-08-19T10:39:58.083Z,27.69
2022-08-19T10:42:25.013Z,27.84
2022-08-19T10:44:52.178Z,28.11
2022-08-19T10:47:24.654Z,28.16
2022-08-19T10:50:13.242Z,28.07
2022-08-19T10:52:49.630Z,27.94
2022-08-19T10:55:42.506Z,27.89
2022-08-19T10:58:14.573Z,27.81
2022-08-19T11:00:44.042Z,27.79
2022-08-19T11:03:11.232Z,27.75
2022-08-19T11:05:39.883Z,27.69
2022-08-19T11:08:23.283Z,27.55
2022-08-19T11:10:54.782Z,27.45
2022-08-19T11:13:22.109Z,27.40
2022-08-19T11:15:48.841Z,27.23
2022-08-19T11:18:15.632Z,27.12
2022-08-19T11:20:42.338Z,27.05
2022-08-19T11:23:09.095Z,26.96
2022-08-19T11:25:36.308Z,26.90
2022-08-19T11:28:03.195Z,26.83
2022-08-19T11:30:29.940Z,26.80
2022-08-19T11:32:56.969Z,26.76
2022-08-19T11:35:24.302Z,26.75
2022-08-19T11:37:51.002Z,26.70
2022-08-19T11:40:18.126Z,26.64
2022-08-19T11:42:57.221Z,26.64
2022-08-19T11:45:25.507Z,26.63
2022-08-19T11:47:52.291Z,26.49
2022-08-19T11:50:19.088Z,26.37
2022-08-19T11:52:46.560Z,26.16
2022-08-19T11:55:14.938Z,26.07
2022-08-19T11:57:42.712Z,25.99
2022-08-19T12:00:12.662Z,25.82
2022-08-19T12:02:39.446Z,25.65
2022-08-19T12:05:11.957Z,25.48
2022-08-19T12:07:40.732Z,25.53
2022-08-19T12:10:08.364Z,25.43
2022-08-19T12:12:35.786Z,25.39
2022-08-19T12:15:03.246Z,25.23
2022-08-19T12:17:31.884Z,25.15
2022-08-19T12:19:58.853Z,24.93
2022-08-19T12:22:25.869Z,24.90
2022-08-19T12:24:54.398Z,24.89
2022-08-19T12:27:32.046Z,25.03
2022-08-19T12:30:10.915Z,25.06
2022-08-19T12:32:38.812Z,24.99
2022-08-19T12:35:07.077Z,24.91
2022-08-19T12:37:33.962Z,24.51
2022-08-19T12:40:00.763Z,24.37
2022-08-19T12:42:28.030Z,24.37
2022-08-19T12:44:54.986Z,24.74
2022-08-19T12:47:22.191Z,24.77
2022-08-19T12:49:53.867Z,24.57
2022-08-19T12:52:26.821Z,24.61
2022-08-19T12:54:55.809Z,24.56
2022-08-19T12:57:32.957Z,24.64
2022-08-19T13:00:11.050Z,24.72
2022-08-19T13:02:39.417Z,24.77
2022-08-19T13:05:09.490Z,24.87
2022-08-19T13:07:38.415Z,25.02
2022-08-19T13:10:10.132Z,25.00
2022-08-19T13:12:37.001Z,25.06
2022-08-19T13:15:10.747Z,25.30
2022-08-19T13:17:39.291Z,25.55
2022-08-19T13:20:08.960Z,25.76
2022-08-19T13:22:38.906Z,26.04
2022-08-19T13:25:07.852Z,26.22
2022-08-19T13:27:34.575Z,26.41
2022-08-19T13:30:20.405Z,26.63
2022-08-19T13:33:05.532Z,26.61
2022-08-19T13:35:32.353Z,26.61
2022-08-19T13:37:59.080Z,26.71
2022-08-19T13:40:27.952Z,26.71
2022-08-19T13:42:56.072Z,26.61
2022-08-19T13:45:25.425Z,26.66
2022-08-19T13:47:58.423Z,26.57
2022-08-19T13:50:29.619Z,26.47
2022-08-19T13:52:57.069Z,26.52
2022-08-19T13:55:25.340Z,26.42
2022-08-19T13:57:54.177Z,26.42
2022-08-19T14:00:22.832Z,26.45
2022-08-19T14:02:52.940Z,26.44
2022-08-19T14:05:21.539Z,26.39
2022-08-19T14:07:49.127Z,26.40
2022-08-19T14:10:16.671Z,26.40
2022-08-19T14:12:43.688Z,26.46
2022-08-19T14:15:12.680Z,26.43
2022-08-19T14:17:41.656Z,26.38
2022-08-19T14:20:11.364Z,26.40
2022-08-19T14:22:45.520Z,26.47
2022-08-19T14:25:21.121Z,26.47
2022-08-19T14:27:49.438Z,26.50
2022-08-19T14:30:20.757Z,26.52
2022-08-19T14:32:47.550Z,26.49
2022-08-19T14:35:16.366Z,26.55
2022-08-19T14:37:46.191Z,26.57
2022-08-19T14:40:16.841Z,26.68
2022-08-19T14:42:44.724Z,26.80
2022-08-19T14:45:13.050Z,26.82
2022-08-19T14:47:40.943Z,26.77
2022-08-19T14:50:17.801Z,26.72
2022-08-19T14:52:44.985Z,26.74
2022-08-19T14:55:11.900Z,26.73
2022-08-19T14:57:38.642Z,26.75
2022-08-19T15:00:06.335Z,26.77
2022-08-19T15:02:34.758Z,26.73
2022-08-19T15:05:02.908Z,26.69
2022-08-19T15:07:30.377Z,26.73
2022-08-19T15:09:58.130Z,26.75
2022-08-19T15:12:25.835Z,26.78
2022-08-19T15:14:56.108Z,26.86
2022-08-19T15:17:43.670Z,26.86
2022-08-19T15:20:13.697Z,26.93
2022-08-19T15:22:41.080Z,26.99
2022-08-19T15:25:11.611Z,27.11
2022-08-19T15:27:41.133Z,27.25
2022-08-19T15:30:12.917Z,27.21
2022-08-19T15:32:40.113Z,27.15
2022-08-19T15:35:08.312Z,27.09
2022-08-19T15:37:37.242Z,27.12
2022-08-19T15:40:06.425Z,27.04
2022-08-19T15:42:34.058Z,26.97
2022-08-19T15:45:10.262Z,26.93
2022-08-19T15:47:37.929Z,26.91
2022-08-19T15:50:18.593Z,26.93
2022-08-19T15:52:59.015Z,26.88
2022-08-19T15:55:33.148Z,26.87
2022-08-19T15:58:46.160Z,26.86
2022-08-19T16:01:32.005Z,26.85
2022-08-19T16:04:23.658Z,26.81
2022-08-19T16:06:57.890Z,26.68
2022-08-19T16:09:29.398Z,26.67
2022-08-19T16:12:01.760Z,26.60
2022-08-19T16:14:31.362Z,26.56
2022-08-19T16:16:58.237Z,26.53
2022-08-19T16:19:25.551Z,26.41
2022-08-19T16:21:54.726Z,26.36
2022-08-19T16:24:25.770Z,26.38
2022-08-19T16:26:53.072Z,26.35
2022-08-19T16:29:33.331Z,26.40
2022-08-19T16:32:02.961Z,26.37
2022-08-19T16:34:30.431Z,26.37
2022-08-19T16:36:57.355Z,26.36
2022-08-19T16:39:24.394Z,26.34
2022-08-19T16:41:51.610Z,26.35
2022-08-19T16:44:19.524Z,26.27
2022-08-19T16:46:57.297Z,26.10
2022-08-19T16:49:54.008Z,26.01
2022-08-19T16:52:18.522Z,25.99
2022-08-19T16:54:45.813Z,25.98
2022-08-19T16:57:13.139Z,25.99
2022-08-19T16:59:48.079Z,25.95
2022-08-19T17:02:22.026Z,25.89
2022-08-19T17:04:58.142Z,25.79
2022-08-19T17:07:32.210Z,25.74
2022-08-19T17:10:02.139Z,25.72
2022-08-19T17:12:30.775Z,25.67
2022-08-19T17:15:01.107Z,25.63
2022-08-19T17:17:29.525Z,25.74
2022-08-19T17:19:58.636Z,25.62
2022-08-19T17:22:25.422Z,25.49
2022-08-19T17:24:52.129Z,25.67
2022-08-19T17:27:22.982Z,25.62
2022-08-19T17:29:49.737Z,25.55
2022-08-19T17:32:16.514Z,25.52
2022-08-19T17:34:52.218Z,25.39
2022-08-19T17:37:19.325Z,25.31
2022-08-19T17:39:46.167Z,25.29
2022-08-19T17:42:12.917Z,25.44
2022-08-19T17:44:41.033Z,25.45
2022-08-19T17:47:08.056Z,25.46
2022-08-19T17:49:35.330Z,25.51
2022-08-19T17:52:02.237Z,25.50
2022-08-19T17:54:33.401Z,25.50
2022-08-19T17:57:01.424Z,25.45
2022-08-19T17:59:30.186Z,25.44
2022-08-19T18:01:57.155Z,25.44
2022-08-19T18:04:25.440Z,25.43
2022-08-19T18:06:54.701Z,25.46
2022-08-19T18:09:26.840Z,25.28
2022-08-19T18:11:57.111Z,25.22
2022-08-19T18:14:32.857Z,25.37
2022-08-19T18:17:06.100Z,25.52
2022-08-19T18:19:42.232Z,25.43
2022-08-19T18:22:36.378Z,25.15
2022-08-19T18:25:08.768Z,25.08
2022-08-19T18:27:35.981Z,25.04
2022-08-19T18:30:03.909Z,25.05
2022-08-19T18:32:36.782Z,25.09
2022-08-19T18:35:11.170Z,25.01
2022-08-19T18:37:39.455Z,24.91
2022-08-19T18:40:26.704Z,24.97
2022-08-19T18:43:22.377Z,25.08
2022-08-19T18:46:08.661Z,25.02
2022-08-19T18:48:56.435Z,25.01
2022-08-19T18:51:28.113Z,24.98
2022-08-19T18:53:57.412Z,25.04
2022-08-19T18:56:28.569Z,25.13
2022-08-19T18:58:58.891Z,24.90
2022-08-19T19:01:30.837Z,24.72
2022-08-19T19:04:04.994Z,24.76
2022-08-19T19:06:38.048Z,24.45
2022-08-19T19:09:05.794Z,24.28
2022-08-19T19:11:35.289Z,24.21
2022-08-19T19:14:03.413Z,24.52
2022-08-19T19:16:30.963Z,24.49
2022-08-19T19:18:58.337Z,24.21
2022-08-19T19:21:26.847Z,24.38
2022-08-19T19:23:55.166Z,24.44
2022-08-19T19:26:23.056Z,24.53
2022-08-19T19:28:51.415Z,24.54
2022-08-19T19:31:26.551Z,24.58
2022-08-19T19:33:55.220Z,24.58
2022-08-19T19:36:23.282Z,24.51
2022-08-19T19:38:50.120Z,24.46
2022-08-19T19:41:23.399Z,24.51
2022-08-19T19:44:23.170Z,24.54
2022-08-19T19:46:42.808Z,24.51
2022-08-19T19:49:10.398Z,24.40
2022-08-19T19:51:39.494Z,24.46
2022-08-19T19:54:09.535Z,24.45
2022-08-19T19:56:36.258Z,24.32
2022-08-19T19:59:03.799Z,24.20
2022-08-19T20:01:30.650Z,24.03
2022-08-19T20:03:59.041Z,24.09
2022-08-19T20:06:29.073Z,24.27
2022-08-19T20:09:10.268Z,24.25
2022-08-19T20:11:43.727Z,24.18
2022-08-19T20:14:16.416Z,24.25
2022-08-19T20:16:46.052Z,23.93
2022-08-19T20:19:15.480Z,24.06
2022-08-19T20:21:45.443Z,24.03
2022-08-19T20:24:19.717Z,24.05
2022-08-19T20:26:47.301Z,24.01
2022-08-19T20:29:39.410Z,23.91
2022-08-19T20:32:07.938Z,24.01
2022-08-19T20:34:34.698Z,23.97
2022-08-19T20:37:01.390Z,24.15
2022-08-19T20:39:28.096Z,24.07
2022-08-19T20:41:56.565Z,23.97
2022-08-19T20:44:25.511Z,23.94
2022-08-19T20:46:54.959Z,23.87
2022-08-19T20:49:27.146Z,23.94
2022-08-19T20:51:58.438Z,23.95
2022-08-19T20:54:26.152Z,23.97
2022-08-19T20:56:53.475Z,23.98
2022-08-19T20:59:21.740Z,24.07
2022-08-19T21:01:51.829Z,24.10
2022-08-19T21:04:22.300Z,24.10
2022-08-19T21:06:50.580Z,24.22
2022-08-19T21:09:17.283Z,24.22
2022-08-19T21:11:44.279Z,24.32
2022-08-19T21:14:10.989Z,24.40
2022-08-19T21:16:37.632Z,24.48
2022-08-19T21:19:05.084Z,24.53
2022-08-19T21:21:33.101Z,24.48
2022-08-19T21:23:59.925Z,24.38
2022-08-19T21:26:26.658Z,24.32
2022-08-19T21:28:53.474Z,24.36
2022-08-19T21:31:21.083Z,24.33
2022-08-19T21:33:47.848Z,24.31
2022-08-19T21:36:14.677Z,24.27
2022-08-19T21:38:41.428Z,24.30
2022-08-19T21:41:08.145Z,24.32
2022-08-19T21:43:37.562Z,24.30
2022-08-19T21:46:04.829Z,24.30
2022-08-19T21:48:31.669Z,24.30
2022-08-19T21:50:58.585Z,24.25
2022-08-19T21:53:34.191Z,24.23
2022-08-19T21:56:03.124Z,24.25
2022-08-19T21:58:30.522Z,24.18
2022-08-19T22:01:05.931Z,24.16
2022-08-19T22:03:34.302Z,24.11
2022-08-19T22:06:01.639Z,24.01
2022-08-19T22:08:28.393Z,23.94
2022-08-19T22:10:55.366Z,23.86
2022-08-19T22:13:22.133Z,23.70
2022-08-19T22:15:51.827Z,23.58
2022-08-19T22:18:19.005Z,23.49
2022-08-19T22:20:45.892Z,23.31
2022-08-19T22:23:12.585Z,23.29
2022-08-19T22:25:46.039Z,23.32
2022-08-19T22:28:14.883Z,23.38
2022-08-19T22:30:47.134Z,23.39
2022-08-19T22:33:18.533Z,23.14
2022-08-19T22:35:46.923Z,23.09
2022-08-19T22:38:14.420Z,23.01
2022-08-19T22:40:46.004Z,22.99
2022-08-19T22:43:22.798Z,22.95
2022-08-19T22:45:52.170Z,22.68
2022-08-19T22:48:21.450Z,22.70
2022-08-19T22:51:08.168Z,22.67
2022-08-19T22:53:37.415Z,22.52
2022-08-19T22:56:06.729Z,22.27
2022-08-19T22:58:33.632Z,21.78
2022-08-19T23:01:01.452Z,21.63
2022-08-19T23:03:28.927Z,21.77
2022-08-19T23:05:56.287Z,21.62
2022-08-19T23:08:23.410Z,21.68
2022-08-19T23:10:50.225Z,21.65
2022-08-19T23:13:17.792Z,21.61
2022-08-19T23:15:46.895Z,21.45
2022-08-19T23:18:14.035Z,21.27
2022-08-19T23:20:43.352Z,21.30
2022-08-19T23:23:14.277Z,21.34
2022-08-19T23:25:41.048Z,21.48
2022-08-19T23:28:26.497Z,21.59
2022-08-19T23:30:53.756Z,21.67
2022-08-19T23:33:26.427Z,21.67
2022-08-19T23:36:15.996Z,21.41
2022-08-19T23:38:45.705Z,21.25
2022-08-19T23:41:13.845Z,21.27
2022-08-19T23:43:42.011Z,21.34
2022-08-19T23:46:11.441Z,21.29
2022-08-19T23:48:39.767Z,21.33
2022-08-19T23:51:09.311Z,21.40
2022-08-19T23:53:38.240Z,21.27
2022-08-19T23:56:07.333Z,21.29
2022-08-19T23:58:37.285Z,21.40
